Buraimi, Oman
Current Conditions -  °F | °C
As of 5:00 PM on Thursday 23 Oct 2014 (Local Time) from OMAL Reporting Station
Clear Clear  
Wind Chill: 90°   Ceiling: Unl
Heat Index: 90°   Visibility: 6mi
Dew Point: 55°   Wind: 14mph
Humidity: 31%   Direction: 300°WNW
Pressure: 29.94"   Gusts: NA
Location:  24.25°N, 55.79°E
Report Text: OMAL 231300Z 30012KT CAVOK 32/13 Q1014 A2994 NOSIG
Loading
Personal Weather Stations






























Interactive Weather Map
Tropical Storm Tracking
New forecast layout! Learn more

10-Day Weather Forecast

Advertisements
Track Severe Weather on mobile